Time;durP1;ratioP1;P1;durP2;ratioP2;P2;SDS_P1;SDS_P2;PMS_P1;PMS_P2;Temp;Humidity;BMP_temperature;BMP_pressure;BME280_temperature;BME280_humidity;BME280_pressure;Samples;Min_cycle;Max_cycle;Signal;HPM_P1;HPM_P2
2022/04/17 00:02:15;;;;;;;2.40;1.17;;;17.40;62.80;;;;;;10460636;28;20056;-57
2022/04/17 00:07:16;;;;;;;1.63;0.68;;;17.40;62.80;;;;;;10460290;28;20163;-56
2022/04/17 00:12:17;;;;;;;3.33;0.95;;;17.40;62.80;;;;;;10460085;28;20482;-57
2022/04/17 00:17:18;;;;;;;3.35;0.80;;;17.40;62.80;;;;;;10453228;28;20037;-56
2022/04/17 00:22:19;;;;;;;6.38;1.25;;;17.40;62.80;;;;;;10469342;28;20440;-57
2022/04/17 00:27:20;;;;;;;2.60;1.67;;;17.40;62.80;;;;;;10459387;28;20086;-56
2022/04/17 00:32:20;;;;;;;3.08;1.00;;;17.40;62.70;;;;;;10459302;28;20059;-56
2022/04/17 00:37:21;;;;;;;2.22;0.98;;;17.40;62.70;;;;;;10457909;28;20040;-57
2022/04/17 00:42:22;;;;;;;2.30;1.20;;;17.40;62.60;;;;;;10456320;28;20449;-56
2022/04/17 00:47:23;;;;;;;1.60;0.85;;;17.40;62.50;;;;;;10458875;28;20036;-56
2022/04/17 00:52:24;;;;;;;1.70;1.00;;;17.30;62.50;;;;;;10457349;28;20044;-56
2022/04/17 00:57:25;;;;;;;3.22;1.05;;;17.30;62.40;;;;;;10458124;28;20044;-56
2022/04/17 01:02:25;;;;;;;2.42;1.40;;;17.30;62.30;;;;;;10457013;28;20444;-56
2022/04/17 01:07:26;;;;;;;2.75;1.00;;;17.30;62.30;;;;;;10456456;28;20335;-56
2022/04/17 01:12:27;;;;;;;2.60;1.02;;;17.30;62.30;;;;;;10456590;28;20043;-57
2022/04/17 01:17:27;;;;;;;2.20;1.50;;;17.40;63.00;;;;;;10456290;28;20090;-57
2022/04/17 01:22:28;;;;;;;2.55;1.42;;;17.40;67.50;;;;;;10468275;28;20398;-57
2022/04/17 01:27:30;;;;;;;2.08;1.33;;;17.40;67.50;;;;;;10457249;28;20037;-56
2022/04/17 01:32:31;;;;;;;2.92;1.40;;;17.50;67.30;;;;;;10455648;28;20044;-57
2022/04/17 01:37:31;;;;;;;1.98;1.52;;;17.40;66.70;;;;;;10455456;28;20484;-56
2022/04/17 01:42:32;;;;;;;2.22;1.30;;;17.40;66.00;;;;;;10456502;28;20108;-56
2022/04/17 01:47:33;;;;;;;3.92;1.15;;;17.40;65.80;;;;;;10455106;28;20104;-56
2022/04/17 01:52:33;;;;;;;2.55;1.30;;;17.40;65.60;;;;;;10455494;28;20064;-57
2022/04/17 01:57:34;;;;;;;2.30;1.55;;;17.40;65.40;;;;;;10455848;28;20159;-57
2022/04/17 02:02:35;;;;;;;2.20;1.40;;;17.40;65.00;;;;;;10455899;28;20505;-56
2022/04/17 02:07:37;;;;;;;2.83;1.50;;;17.40;64.70;;;;;;10453996;28;20048;-56
2022/04/17 02:12:37;;;;;;;2.15;1.73;;;17.40;64.90;;;;;;10455554;28;20033;-57
2022/04/17 02:17:38;;;;;;;1.42;1.20;;;17.30;64.70;;;;;;10455312;28;20048;-57
2022/04/17 02:22:40;;;;;;;1.85;1.10;;;17.40;64.60;;;;;;10460946;28;20509;-56
2022/04/17 02:27:40;;;;;;;3.45;1.60;;;17.30;64.30;;;;;;10454687;28;20052;-56
2022/04/17 02:32:41;;;;;;;1.23;1.00;;;17.30;64.10;;;;;;10453740;28;20056;-55
2022/04/17 02:37:42;;;;;;;2.75;1.40;;;17.30;64.00;;;;;;10454741;28;20075;-56
2022/04/17 02:42:45;;;;;;;4.55;1.80;;;17.30;63.80;;;;;;10454161;28;20120;-56
2022/04/17 02:47:48;;;;;;;3.13;1.60;;;17.30;63.70;;;;;;10454589;28;20029;-56
2022/04/17 02:52:52;;;;;;;1.85;1.30;;;17.20;63.50;;;;;;10453979;28;20040;-56
2022/04/17 02:57:54;;;;;;;2.25;1.48;;;17.20;63.50;;;;;;10454399;28;20048;-56
2022/04/17 03:08:16;;;;;;;2.20;1.37;;;17.30;63.10;;;;;;10460106;28;20045;-57
2022/04/17 03:13:16;;;;;;;1.77;1.30;;;17.30;63.00;;;;;;10477895;28;20037;-56
2022/04/17 03:18:17;;;;;;;2.75;1.52;;;17.30;62.70;;;;;;10462135;28;20087;-56
2022/04/17 03:23:18;;;;;;;2.47;1.50;;;17.30;62.70;;;;;;10473058;28;20501;-56
2022/04/17 03:28:18;;;;;;;3.20;1.77;;;17.20;62.50;;;;;;10461655;28;20492;-57
2022/04/17 03:33:19;;;;;;;2.47;1.30;;;17.20;62.50;;;;;;10461648;28;20116;-57
2022/04/17 03:38:20;;;;;;;3.67;1.90;;;17.20;62.40;;;;;;10461504;28;20033;-56
2022/04/17 03:43:23;;;;;;;2.97;1.85;;;17.20;62.30;;;;;;10460893;28;20060;-56
2022/04/17 03:48:23;;;;;;;3.08;1.55;;;17.20;62.20;;;;;;10461304;28;20036;-57
2022/04/17 03:53:24;;;;;;;2.35;1.23;;;17.20;62.00;;;;;;10460861;28;20079;-57
2022/04/17 03:58:25;;;;;;;2.50;1.80;;;17.20;62.00;;;;;;10460488;28;20492;-56
2022/04/17 04:03:26;;;;;;;2.20;1.50;;;17.20;62.00;;;;;;10460571;28;20122;-56
2022/04/17 04:08:26;;;;;;;3.53;1.65;;;17.10;61.80;;;;;;10460318;28;20112;-57
2022/04/17 04:13:27;;;;;;;2.60;1.88;;;17.10;62.00;;;;;;10460235;28;20397;-56
2022/04/17 04:18:28;;;;;;;3.38;2.05;;;17.10;61.70;;;;;;10457106;28;20033;-56
2022/04/17 04:23:33;;;;;;;3.13;1.40;;;17.10;61.60;;;;;;10470808;28;20636;-56
2022/04/17 04:28:35;;;;;;;3.80;1.83;;;17.10;61.50;;;;;;10455447;28;20456;-57
2022/04/17 04:33:39;;;;;;;2.33;1.52;;;17.10;61.40;;;;;;10458443;28;20400;-56
2022/04/17 04:38:40;;;;;;;2.15;1.58;;;17.10;61.50;;;;;;10459271;28;20033;-56
2022/04/17 04:43:41;;;;;;;2.47;1.90;;;17.10;61.30;;;;;;10457859;28;20029;-56
2022/04/17 04:54:03;;;;;;;2.38;1.40;;;17.10;61.10;;;;;;10472421;28;20120;-56
2022/04/17 04:59:04;;;;;;;3.20;1.60;;;17.10;61.00;;;;;;10458044;28;20132;-58
2022/04/17 05:04:05;;;;;;;4.22;1.77;;;17.10;61.20;;;;;;10456214;28;20551;-56
2022/04/17 05:09:05;;;;;;;5.80;2.90;;;17.20;60.40;;;;;;10459276;28;20095;-51
2022/04/17 05:14:09;;;;;;;6.10;2.03;;;17.30;60.20;;;;;;10473268;28;20024;-51
2022/04/17 05:19:20;;;;;;;8.57;3.80;;;17.40;60.80;;;;;;10458094;28;20389;-55
2022/04/17 05:24:21;;;;;;;12.00;2.80;;;17.50;61.30;;;;;;10468840;28;20083;-53
2022/04/17 05:29:22;;;;;;;12.63;2.70;;;17.50;61.80;;;;;;10454232;28;20131;-53
2022/04/17 05:34:22;;;;;;;10.50;2.70;;;17.50;61.80;;;;;;10457191;28;20064;-51
2022/04/17 05:39:23;;;;;;;6.35;2.65;;;17.50;61.80;;;;;;10459240;28;20060;-50
2022/04/17 05:44:24;;;;;;;11.68;3.40;;;17.40;61.80;;;;;;10465589;28;20127;-50
2022/04/17 05:49:25;;;;;;;10.20;2.75;;;17.30;61.90;;;;;;10456475;28;20559;-51
2022/04/17 05:54:27;;;;;;;8.35;2.90;;;17.30;62.20;;;;;;10454394;28;20037;-55
2022/04/17 05:59:28;;;;;;;8.30;3.10;;;17.30;62.70;;;;;;10469884;28;20029;-54
2022/04/17 06:04:29;;;;;;;9.90;3.03;;;17.30;62.40;;;;;;10455052;28;20365;-53
2022/04/17 06:09:29;;;;;;;9.57;3.70;;;17.20;62.30;;;;;;10453959;28;20044;-52
2022/04/17 06:14:30;;;;;;;19.52;5.65;;;17.20;62.20;;;;;;10457422;28;20089;-52
2022/04/17 06:19:31;;;;;;;11.43;3.65;;;17.20;62.40;;;;;;10447250;28;20084;-52
2022/04/17 06:24:31;;;;;;;14.52;4.10;;;17.30;62.30;;;;;;10454935;28;20456;-50
2022/04/17 06:29:32;;;;;;;12.82;3.63;;;17.20;62.00;;;;;;10456117;28;20045;-56
2022/04/17 06:34:33;;;;;;;19.23;4.78;;;17.30;61.90;;;;;;10453926;28;20473;-54
2022/04/17 06:39:33;;;;;;;14.00;5.50;;;17.40;62.20;;;;;;10451820;28;20493;-53
2022/04/17 06:44:34;;;;;;;19.23;6.38;;;17.40;63.10;;;;;;10453050;28;20091;-54
2022/04/17 06:49:35;;;;;;;20.63;5.20;;;17.50;63.70;;;;;;10454237;28;20052;-54
2022/04/17 06:54:36;;;;;;;17.38;5.90;;;17.50;64.10;;;;;;10464330;28;20068;-53
2022/04/17 06:59:37;;;;;;;22.60;5.95;;;17.60;64.70;;;;;;10453133;28;20116;-53
2022/04/17 07:04:37;;;;;;;23.77;6.10;;;17.60;64.20;;;;;;10469529;28;20025;-54
2022/04/17 07:09:38;;;;;;;21.85;5.97;;;17.60;64.50;;;;;;10453450;28;20469;-53
2022/04/17 07:14:39;;;;;;;21.50;5.80;;;17.50;64.00;;;;;;10453835;28;20151;-56
2022/04/17 07:19:39;;;;;;;16.88;5.75;;;17.40;64.20;;;;;;10452836;28;20033;-53
2022/04/17 07:24:43;;;;;;;10.65;5.22;;;17.30;63.80;;;;;;10458946;28;20021;-54
2022/04/17 07:29:44;;;;;;;13.45;5.03;;;17.20;63.70;;;;;;10450853;28;20049;-52
2022/04/17 07:34:44;;;;;;;16.02;6.65;;;17.10;63.90;;;;;;10450639;28;20083;-54
2022/04/17 07:39:45;;;;;;;17.70;6.57;;;17.10;64.00;;;;;;10450715;28;20057;-54
2022/04/17 07:44:46;;;;;;;13.35;5.35;;;17.10;64.00;;;;;;10452837;28;20061;-53
2022/04/17 07:49:46;;;;;;;10.27;4.97;;;17.10;64.00;;;;;;10452104;28;20071;-54
2022/04/17 07:54:49;;;;;;;12.43;4.80;;;17.00;63.90;;;;;;10460147;28;20087;-54
2022/04/17 07:59:50;;;;;;;13.52;4.72;;;17.00;64.00;;;;;;10460753;28;20040;-53
2022/04/17 08:04:52;;;;;;;12.50;4.85;;;17.00;63.90;;;;;;10459280;28;20017;-55
2022/04/17 08:09:52;;;;;;;10.70;3.92;;;17.10;63.80;;;;;;10460234;28;20029;-53
2022/04/17 08:14:53;;;;;;;9.95;4.50;;;17.10;63.70;;;;;;10458592;28;20076;-54
2022/04/17 08:19:54;;;;;;;10.82;5.10;;;17.10;63.70;;;;;;10459951;28;20079;-53
2022/04/17 08:24:55;;;;;;;6.10;3.65;;;17.10;63.50;;;;;;10470713;28;20509;-53
2022/04/17 08:29:55;;;;;;;7.75;3.83;;;17.10;63.50;;;;;;10459463;28;20076;-53
2022/04/17 08:34:56;;;;;;;7.32;3.70;;;17.10;63.40;;;;;;10459458;28;20548;-52
2022/04/17 08:39:56;;;;;;;11.80;4.05;;;17.10;63.40;;;;;;10458999;28;20540;-55
2022/04/17 08:44:57;;;;;;;7.40;3.85;;;17.10;63.30;;;;;;10458843;28;20118;-53
2022/04/17 08:49:59;;;;;;;5.95;2.70;;;17.20;63.30;;;;;;10458688;28;20127;-54
2022/04/17 08:55:01;;;;;;;8.15;4.25;;;17.10;63.30;;;;;;10458249;28;20033;-54
2022/04/17 09:00:10;;;;;;;10.18;4.03;;;17.20;63.30;;;;;;10458177;28;20029;-53
2022/04/17 09:05:13;;;;;;;8.33;3.47;;;17.20;63.20;;;;;;10457423;28;20048;-53
2022/04/17 09:10:31;;;;;;;11.63;3.45;;;17.20;63.20;;;;;;10457879;28;20288;-54
2022/04/17 09:15:34;;;;;;;6.88;3.17;;;17.20;63.10;;;;;;10457153;28;20033;-53
2022/04/17 09:20:35;;;;;;;8.57;3.28;;;17.20;63.10;;;;;;10457876;28;20036;-53
2022/04/17 09:25:37;;;;;;;7.05;3.42;;;17.20;63.10;;;;;;10467560;28;20497;-53
2022/04/17 09:30:45;;;;;;;4.60;3.20;;;17.20;63.10;;;;;;10457130;28;20040;-52
2022/04/17 09:35:55;;;;;;;6.80;3.83;;;17.20;63.00;;;;;;10456593;28;20105;-53
2022/04/17 09:41:13;;;;;;;7.28;3.00;;;17.30;63.10;;;;;;10472099;28;20540;-52
2022/04/17 09:46:14;;;;;;;6.38;2.83;;;17.30;63.00;;;;;;10456424;28;20036;-52
2022/04/17 09:51:34;;;;;;;8.73;3.08;;;17.30;63.00;;;;;;10454876;28;20039;-52
2022/04/17 09:56:41;;;;;;;4.67;2.97;;;17.30;62.90;;;;;;10454641;28;20043;-54
2022/04/17 10:01:44;;;;;;;6.90;2.72;;;17.40;62.80;;;;;;10455934;28;20404;-53
2022/04/17 10:06:50;;;;;;;5.65;3.28;;;17.40;62.80;;;;;;10455386;28;20021;-53
2022/04/17 10:11:51;;;;;;;4.68;2.50;;;17.40;62.80;;;;;;10454278;28;20036;-51
2022/04/17 10:16:55;;;;;;;3.97;2.67;;;17.40;62.70;;;;;;10442241;28;20040;-49
2022/04/17 10:22:01;;;;;;;7.82;2.67;;;17.50;62.80;;;;;;10466289;28;20094;-52
2022/04/17 10:27:02;;;;;;;4.85;2.60;;;17.50;62.60;;;;;;10453438;28;20400;-52
2022/04/17 10:32:26;;;;;;;5.97;2.55;;;17.50;62.50;;;;;;10453579;28;20131;-51
2022/04/17 10:38:15;;;;;;;7.20;2.55;;;17.60;62.50;;;;;;10468887;28;20033;-53
2022/04/17 10:43:16;;;;;;;4.28;2.70;;;17.60;62.40;;;;;;10467673;28;20086;-52
2022/04/17 10:48:27;;;;;;;5.05;2.88;;;17.60;62.40;;;;;;10454330;28;20573;-53
2022/04/17 10:53:29;;;;;;;3.90;2.35;;;17.60;62.30;;;;;;10454189;28;20037;-52
2022/04/17 10:58:44;;;;;;;5.40;2.70;;;17.60;62.30;;;;;;10454023;28;20029;-53
2022/04/17 11:03:55;;;;;;;4.95;2.83;;;17.70;62.30;;;;;;10454207;28;20033;-53
2022/04/17 11:09:04;;;;;;;4.03;2.05;;;17.70;62.20;;;;;;10453755;28;20033;-53
2022/04/17 11:14:10;;;;;;;3.28;2.25;;;17.70;62.20;;;;;;10454119;28;20057;-52
2022/04/17 11:19:17;;;;;;;5.18;2.28;;;17.80;62.20;;;;;;10453620;28;20036;-53
2022/04/17 11:24:19;;;;;;;3.25;2.00;;;17.80;62.80;;;;;;10464504;28;20021;-54
2022/04/17 11:30:03;;;;;;;4.57;2.70;;;17.80;62.10;;;;;;10453696;28;20136;-51
2022/04/17 11:35:08;;;;;;;3.53;2.28;;;17.80;62.10;;;;;;10447648;28;20053;-52
2022/04/17 11:40:15;;;;;;;4.78;2.08;;;17.90;61.70;;;;;;10475674;28;20181;-53
2022/04/17 11:45:23;;;;;;;6.68;1.85;;;17.90;61.40;;;;;;10461091;28;20025;-52
2022/04/17 11:50:29;;;;;;;4.68;1.70;;;18.00;61.20;;;;;;10459922;28;20470;-53
2022/04/17 11:55:36;;;;;;;4.93;2.05;;;18.00;61.00;;;;;;10460528;28;20523;-53
2022/04/17 12:00:38;;;;;;;5.97;2.40;;;18.00;60.90;;;;;;10460146;28;20021;-49
2022/04/17 12:05:38;;;;;;;4.80;1.90;;;18.00;60.70;;;;;;10458442;28;20025;-52
2022/04/17 12:10:42;;;;;;;3.92;2.10;;;18.10;60.60;;;;;;10459721;28;20485;-53
2022/04/17 12:15:44;;;;;;;6.50;2.45;;;18.10;60.50;;;;;;10459310;28;20420;-52
2022/04/17 12:21:05;;;;;;;4.15;2.08;;;18.10;60.40;;;;;;10461738;28;20103;-50
2022/04/17 12:26:09;;;;;;;5.72;2.15;;;18.10;60.10;;;;;;10466147;28;20489;-50
2022/04/17 12:31:14;;;;;;;6.13;2.10;;;18.20;60.20;;;;;;10456642;28;20366;-50
2022/04/17 12:36:21;;;;;;;9.82;3.17;;;18.20;59.90;;;;;;10473974;28;20473;-52
2022/04/17 12:41:26;;;;;;;5.72;2.38;;;18.30;59.80;;;;;;10472209;28;20033;-49
2022/04/17 12:46:32;;;;;;;7.50;3.03;;;18.30;59.60;;;;;;10458702;28;20029;-49
2022/04/17 12:51:33;;;;;;;8.73;2.30;;;18.30;59.70;;;;;;10458274;28;20041;-49
2022/04/17 12:56:34;;;;;;;6.43;2.55;;;18.30;59.60;;;;;;10472836;28;20456;-49
2022/04/17 13:01:40;;;;;;;6.45;2.50;;;18.30;59.20;;;;;;10456493;28;20112;-51
2022/04/17 13:06:41;;;;;;;6.43;2.08;;;18.30;58.90;;;;;;10471613;28;20035;-47
2022/04/17 13:11:44;;;;;;;8.30;2.67;;;18.30;58.70;;;;;;10457562;28;20477;-48
2022/04/17 13:16:53;;;;;;;5.82;3.00;;;18.30;58.80;;;;;;10457885;28;20045;-47
2022/04/17 13:21:56;;;;;;;;;;;18.30;58.80;;;;;;10466778;28;20099;-47
2022/04/17 13:26:57;;;;;;;5.45;2.38;;;18.40;59.00;;;;;;10442691;28;20358;-48
2022/04/17 13:31:58;;;;;;;4.32;2.25;;;18.40;59.10;;;;;;10453686;28;20151;-47
2022/04/17 13:42:18;;;;;;;;;;;18.40;59.20;;;;;;10458200;28;20033;-49
2022/04/17 13:47:19;;;;;;;6.35;1.88;;;18.40;59.10;;;;;;10456582;28;19912;-49
2022/04/17 13:52:20;;;;;;;3.97;1.70;;;18.40;59.20;;;;;;10456050;28;20056;-47
2022/04/17 13:57:21;;;;;;;4.20;1.88;;;18.40;59.30;;;;;;10456222;28;20037;-46
2022/04/17 14:02:22;;;;;;;5.97;3.08;;;18.40;59.30;;;;;;10456315;28;20021;-46
2022/04/17 14:07:22;;;;;;;4.70;1.85;;;18.40;59.30;;;;;;10455839;28;20029;-48
2022/04/17 14:12:24;;;;;;;3.90;2.08;;;18.40;59.40;;;;;;10455175;28;20047;-48
2022/04/17 14:17:25;;;;;;;3.15;1.45;;;18.40;59.40;;;;;;10455302;28;20464;-48
2022/04/17 14:22:26;;;;;;;6.05;2.00;;;18.40;59.40;;;;;;10466285;28;20105;-48
2022/04/17 14:27:26;;;;;;;2.78;1.77;;;18.40;59.50;;;;;;10453729;28;20041;-48
2022/04/17 14:32:27;;;;;;;3.80;1.60;;;18.40;59.50;;;;;;10453703;28;20557;-48
2022/04/17 14:37:28;;;;;;;3.35;1.70;;;18.40;59.60;;;;;;10454889;28;20566;-49
2022/04/17 14:42:28;;;;;;;3.10;1.52;;;18.40;59.60;;;;;;10454765;28;20033;-48
2022/04/17 14:47:29;;;;;;;3.05;1.67;;;18.40;59.60;;;;;;10454691;28;20036;-48
2022/04/17 14:52:30;;;;;;;2.92;1.48;;;18.40;59.70;;;;;;10454475;28;20067;-48
2022/04/17 14:57:30;;;;;;;2.30;1.30;;;18.40;59.80;;;;;;10452860;28;20095;-47
2022/04/17 15:02:31;;;;;;;2.92;1.40;;;18.40;59.80;;;;;;10452862;28;20389;-49
2022/04/17 15:07:35;;;;;;;2.53;1.40;;;18.40;59.80;;;;;;10454168;28;20044;-48
2022/04/17 15:12:39;;;;;;;2.75;1.30;;;18.40;60.00;;;;;;10453924;28;20033;-48
2022/04/17 15:17:39;;;;;;;3.60;1.52;;;18.30;59.90;;;;;;10454122;28;20490;-48
2022/04/17 15:22:40;;;;;;;3.63;1.65;;;18.30;59.90;;;;;;10457613;28;20063;-48
2022/04/17 15:27:41;;;;;;;1.70;1.20;;;18.30;60.00;;;;;;10453653;28;20531;-48
2022/04/17 15:32:46;;;;;;;2.97;1.83;;;18.30;60.00;;;;;;10453502;28;20124;-47
2022/04/17 15:37:47;;;;;;;3.55;1.45;;;18.30;60.10;;;;;;10453322;28;20113;-48
2022/04/17 15:42:48;;;;;;;4.25;1.48;;;18.30;60.10;;;;;;10453577;28;20031;-49
2022/04/17 15:47:54;;;;;;;3.00;1.40;;;18.20;60.20;;;;;;10453263;28;20032;-48
2022/04/17 15:52:55;;;;;;;2.13;1.23;;;18.20;60.20;;;;;;10451878;28;20033;-50
2022/04/17 15:57:56;;;;;;;2.13;1.15;;;18.20;60.20;;;;;;10451990;28;20032;-49
2022/04/17 16:02:57;;;;;;;1.92;1.20;;;18.20;60.30;;;;;;10451777;28;20045;-48
2022/04/17 16:07:57;;;;;;;2.25;1.38;;;18.20;60.20;;;;;;10452875;28;20035;-52
2022/04/17 16:12:59;;;;;;;1.25;0.80;;;18.20;60.30;;;;;;10455783;28;20456;-48
2022/04/17 16:17:59;;;;;;;3.35;1.55;;;18.20;60.30;;;;;;10459610;28;20037;-46
2022/04/17 16:23:01;;;;;;;1.98;1.15;;;18.10;60.30;;;;;;10464120;28;20108;-47
2022/04/17 16:28:02;;;;;;;2.22;1.40;;;18.10;60.30;;;;;;10459342;28;20037;-49
2022/04/17 16:33:04;;;;;;;1.50;1.00;;;18.10;60.40;;;;;;10459814;28;20143;-50
2022/04/17 16:38:05;;;;;;;2.25;1.67;;;18.10;60.40;;;;;;10459098;28;20033;-53
2022/04/17 16:43:05;;;;;;;3.03;1.10;;;18.00;60.40;;;;;;10459437;28;20044;-47
2022/04/17 16:48:06;;;;;;;2.20;1.13;;;18.00;60.50;;;;;;10458700;28;20060;-48
2022/04/17 16:53:07;;;;;;;1.98;1.08;;;18.00;60.50;;;;;;10457016;28;20373;-48
2022/04/17 17:03:27;;;;;;;2.28;1.15;;;17.90;60.50;;;;;;10458372;28;20037;-47
2022/04/17 17:08:30;;;;;;;3.17;1.40;;;18.00;60.50;;;;;;10457879;28;20033;-48
2022/04/17 17:13:31;;;;;;;2.60;1.90;;;18.00;60.60;;;;;;10458118;28;20493;-48
2022/04/17 17:18:32;;;;;;;1.60;0.88;;;17.90;60.50;;;;;;10457666;28;20044;-48
2022/04/17 17:23:33;;;;;;;2.25;1.17;;;17.90;60.50;;;;;;10461622;28;20056;-49
2022/04/17 17:28:34;;;;;;;2.15;1.00;;;17.90;60.50;;;;;;10457152;28;20044;-48
2022/04/17 17:33:35;;;;;;;1.35;0.95;;;17.90;60.60;;;;;;10457556;28;20071;-48
2022/04/17 17:38:35;;;;;;;1.48;0.80;;;17.90;60.60;;;;;;10456851;28;20558;-50
2022/04/17 17:43:36;;;;;;;1.55;0.93;;;17.90;60.60;;;;;;10456714;28;20036;-49
2022/04/17 17:48:38;;;;;;;1.65;1.05;;;17.90;60.50;;;;;;10448715;28;20115;-49
2022/04/17 17:53:43;;;;;;;2.05;1.15;;;17.90;60.60;;;;;;10451966;28;20053;-47
2022/04/17 17:58:43;;;;;;;2.47;0.95;;;17.80;60.60;;;;;;10471123;28;20067;-48
2022/04/17 18:03:44;;;;;;;3.50;1.08;;;17.80;60.60;;;;;;10455776;28;20434;-46
2022/04/17 18:19:24;;;;;;;9.40;1.25;;;17.80;60.30;;;;;;10455220;28;20041;-52
2022/04/17 18:24:24;;;;;;;1.98;1.00;;;17.90;60.20;;;;;;10461763;28;20063;-51
2022/04/17 18:29:25;;;;;;;3.22;1.08;;;17.80;60.20;;;;;;10452788;28;20059;-52
2022/04/17 18:34:26;;;;;;;4.70;1.40;;;17.80;60.30;;;;;;10450190;28;20118;-54
2022/04/17 18:39:27;;;;;;;3.40;2.00;;;17.80;60.40;;;;;;10451501;28;20044;-52
2022/04/17 18:44:27;;;;;;;4.18;2.13;;;18.00;62.80;;;;;;10453958;28;20025;-51
2022/04/17 18:49:28;;;;;;;5.40;1.92;;;18.00;66.20;;;;;;10459774;28;20067;-49
2022/04/17 18:54:31;;;;;;;3.83;1.23;;;18.00;63.60;;;;;;10468513;28;20040;-50
2022/04/17 18:59:31;;;;;;;4.78;1.80;;;17.90;61.90;;;;;;10461836;28;20036;-46
2022/04/17 19:04:32;;;;;;;4.28;1.58;;;18.00;62.60;;;;;;10453433;28;20481;-48
2022/04/17 19:09:33;;;;;;;2.72;1.48;;;18.00;62.60;;;;;;10452611;28;20068;-50
2022/04/17 19:14:34;;;;;;;5.13;1.67;;;18.00;62.60;;;;;;10454014;28;20029;-52
2022/04/17 19:19:35;;;;;;;3.17;1.20;;;18.00;62.50;;;;;;10453742;28;20040;-52
2022/04/17 19:24:37;;;;;;;5.00;1.38;;;17.90;62.40;;;;;;10464722;28;20507;-52
2022/04/17 19:29:38;;;;;;;3.03;1.17;;;17.90;62.30;;;;;;10452807;28;20040;-52
2022/04/17 19:39:58;;;;;;;2.00;1.03;;;17.90;62.20;;;;;;10453695;28;20068;-51
2022/04/17 19:44:58;;;;;;;5.15;1.40;;;17.90;61.90;;;;;;10453370;28;20029;-53
2022/04/17 19:49:59;;;;;;;3.20;1.20;;;17.90;61.70;;;;;;10459648;28;20431;-52
2022/04/17 19:55:00;;;;;;;4.78;1.45;;;17.90;61.80;;;;;;10461382;28;20108;-51
2022/04/17 20:00:04;;;;;;;6.30;1.42;;;17.80;61.50;;;;;;10460912;28;20017;-52
2022/04/17 20:05:06;;;;;;;4.32;1.58;;;17.80;61.30;;;;;;10460149;28;20031;-52
2022/04/17 20:10:07;;;;;;;5.40;1.45;;;17.90;61.30;;;;;;10460657;28;20065;-50
2022/04/17 20:15:08;;;;;;;2.22;1.13;;;17.80;61.10;;;;;;10460434;28;20160;-50
2022/04/17 20:20:09;;;;;;;2.50;1.15;;;17.80;61.00;;;;;;10459849;28;20411;-52
2022/04/17 20:25:10;;;;;;;1.92;1.10;;;17.80;60.90;;;;;;10469994;28;20025;-51
2022/04/17 20:30:11;;;;;;;2.15;0.90;;;17.80;60.90;;;;;;10459790;28;20120;-52
2022/04/17 20:35:12;;;;;;;3.30;1.25;;;17.80;61.00;;;;;;10458300;28;20052;-51
2022/04/17 20:40:13;;;;;;;3.75;1.30;;;17.80;61.00;;;;;;10458632;28;20485;-53
2022/04/17 20:50:35;;;;;;;1.37;0.90;;;17.80;61.00;;;;;;10458456;28;20052;-51
2022/04/17 20:55:37;;;;;;;2.03;1.30;;;17.80;61.00;;;;;;10458702;28;20040;-51
2022/04/17 21:00:38;;;;;;;2.75;1.58;;;17.80;61.00;;;;;;10457535;28;20044;-52
2022/04/17 21:05:38;;;;;;;2.55;1.40;;;17.80;60.90;;;;;;10458249;28;20028;-52
2022/04/17 21:10:41;;;;;;;2.42;1.35;;;17.70;60.70;;;;;;10457209;28;20033;-53
2022/04/17 21:15:42;;;;;;;2.65;1.45;;;17.70;60.60;;;;;;10456802;28;20063;-51
2022/04/17 21:20:43;;;;;;;2.83;1.30;;;17.80;60.70;;;;;;10457894;28;20017;-51
2022/04/17 21:25:44;;;;;;;1.77;1.30;;;17.70;60.60;;;;;;10482681;28;20036;-53
2022/04/17 21:30:44;;;;;;;3.30;1.45;;;17.70;60.60;;;;;;10457262;28;20048;-51
2022/04/17 21:35:45;;;;;;;4.03;2.00;;;17.70;60.50;;;;;;10457321;28;20064;-52
2022/04/17 21:40:46;;;;;;;1.85;1.50;;;17.70;60.50;;;;;;10456761;28;20025;-50
2022/04/17 21:45:46;;;;;;;1.98;1.42;;;17.70;60.60;;;;;;10472278;28;20056;-52
2022/04/17 21:50:47;;;;;;;2.13;1.42;;;17.70;60.50;;;;;;10456464;28;20098;-50
2022/04/17 21:55:48;;;;;;;2.70;1.67;;;17.70;60.50;;;;;;10456359;28;20674;-51
2022/04/17 22:06:12;;;;;;;2.50;1.58;;;17.70;60.40;;;;;;10456561;28;20033;-52
2022/04/17 22:11:13;;;;;;;2.13;1.40;;;17.70;60.30;;;;;;10455769;28;20051;-50
2022/04/17 22:16:14;;;;;;;3.20;2.08;;;17.70;60.40;;;;;;10455364;28;20021;-50
2022/04/17 22:21:14;;;;;;;3.05;1.63;;;17.70;60.30;;;;;;10461842;28;20055;-51
2022/04/17 22:26:15;;;;;;;3.28;1.63;;;17.70;60.20;;;;;;10459554;28;20119;-51
2022/04/17 22:31:16;;;;;;;3.83;1.90;;;17.60;60.20;;;;;;10455150;28;20128;-50
2022/04/17 22:36:16;;;;;;;3.00;1.67;;;17.70;60.10;;;;;;10454710;28;20084;-51
2022/04/17 22:41:18;;;;;;;2.50;1.60;;;17.70;60.10;;;;;;10454747;28;20025;-52
2022/04/17 22:46:19;;;;;;;6.00;2.13;;;17.60;60.00;;;;;;10454809;28;20033;-49
2022/04/17 22:51:20;;;;;;;2.88;1.98;;;17.60;60.10;;;;;;10454443;28;20413;-55
2022/04/17 22:56:21;;;;;;;2.83;1.75;;;17.60;60.00;;;;;;10453708;28;20064;-51
2022/04/17 23:01:22;;;;;;;1.60;1.30;;;17.60;59.90;;;;;;10454147;28;20049;-49
2022/04/17 23:06:24;;;;;;;3.75;1.88;;;17.60;59.90;;;;;;10454057;28;20029;-52
2022/04/17 23:11:24;;;;;;;3.58;2.63;;;17.60;59.90;;;;;;10453606;28;20037;-52
2022/04/17 23:16:26;;;;;;;2.60;1.88;;;17.60;59.90;;;;;;10454072;28;20072;-52
2022/04/17 23:21:27;;;;;;;3.90;2.17;;;17.60;59.70;;;;;;10454336;28;20025;-51
2022/04/17 23:26:28;;;;;;;2.83;2.00;;;17.60;59.70;;;;;;10462259;28;20025;-52
2022/04/17 23:31:28;;;;;;;3.33;2.22;;;17.60;59.70;;;;;;10461915;28;20512;-51
2022/04/17 23:36:29;;;;;;;3.13;2.05;;;17.50;59.70;;;;;;10461742;28;20068;-51
2022/04/17 23:41:30;;;;;;;3.60;2.50;;;17.60;59.80;;;;;;10461549;28;20496;-49
2022/04/17 23:46:30;;;;;;;3.72;2.45;;;17.50;59.70;;;;;;10461450;28;20065;-50
2022/04/17 23:51:31;;;;;;;3.35;2.25;;;17.50;59.70;;;;;;10452157;28;20488;-53
2022/04/17 23:56:31;;;;;;;3.90;2.40;;;17.50;59.60;;;;;;10459992;28;20116;-52
